Aviation Digital Data Service (ADDS)

Output produced by TAFs form (2203 UTC 23 November 2014)
found at http://aviationweather.gov/adds/tafs/
 
KMTJ 231818Z 2318/2418 33012G20KT P6SM VCSH SCT010 BKN030 OVC045 
     TEMPO 2318/2319 1SM -SN BR BKN009 BKN015 OVC020 
     FM232000 33010G20KT P6SM VCSH SCT040 BKN060 
     FM240200 15007KT P6SM SCT070 BKN120 
     FM241300 VRB04KT P6SM BKN050 BKN100